LGA weather

La Guardia Airport
New York, New York, United States

Public forecast

Using degrees Fahrenheit for public forecast. Weather courtesy of forecast.io.

Current aviation weather report (METAR) for La Guardia Airport

Retrieved 2019/10/17 04:51 UTC (20 minutes ago):

KLGA 170451Z 30024G42KT 10SM FEW010 OVC070 13/08 A2921 RMK AO2 PK WND 30042/0442 RAE44 SLP891 P0000 T01280078 401940122

Aviation forecast (TAF) for La Guardia Airport

Retrieved 2019-10-17 00:46 UTC (4 hours ago):

TAF KLGA 162344Z 1700/1806 10020G30KT 2SM +RA BR BKN015 WS020/14050KT FM170200 35022G32KT 4SM -RA BR SCT008 OVC015 TEMPO 1702/1703 2SM RA BR BKN008 FM170400 31025G35KT P6SM BKN015 FM170600 28023G33KT P6SM BKN035 FM170900 28023G33KT P6SM BKN045 FM171500 27026G38KT P6SM BKN050 FM172300 29021G31KT P6SM BKN050 FM180400 29017G27KT P6SM BKN050